createdAt,value
2018-03-09T00:00:18.413Z,0
2018-03-09T00:01:18.295Z,0
2018-03-09T00:02:18.296Z,0
2018-03-09T00:03:18.033Z,0
2018-03-09T00:04:18.025Z,0
2018-03-09T00:05:18.571Z,0
2018-03-09T00:06:17.761Z,0
2018-03-09T00:07:18.279Z,0
2018-03-09T00:08:18.015Z,0
2018-03-09T00:09:19.491Z,0
2018-03-09T00:10:18.578Z,0
2018-03-09T00:11:17.996Z,0
2018-03-09T00:12:17.973Z,0
2018-03-09T00:13:17.966Z,0
2018-03-09T00:14:18.226Z,0
2018-03-09T00:15:18.541Z,0
2018-03-09T00:16:17.957Z,0
2018-03-09T00:17:18.180Z,0
2018-03-09T00:18:17.947Z,0
2018-03-09T00:19:18.165Z,0
2018-03-09T00:20:18.325Z,0
2018-03-09T00:21:17.962Z,0
2018-03-09T00:22:17.896Z,0
2018-03-09T00:23:17.890Z,0
2018-03-09T00:24:18.680Z,0
2018-03-09T00:25:18.586Z,0
2018-03-09T00:26:18.114Z,0
2018-03-09T00:27:18.110Z,0
2018-03-09T00:28:17.848Z,0
2018-03-09T00:29:18.109Z,0
2018-03-09T00:30:18.477Z,0
2018-03-09T00:31:18.096Z,0
2018-03-09T00:32:17.563Z,0
2018-03-09T00:33:17.828Z,0
2018-03-09T00:34:18.057Z,0
2018-03-09T00:35:18.271Z,0
2018-03-09T00:36:17.278Z,0
2018-03-09T00:37:18.036Z,0
2018-03-09T00:38:17.828Z,0
2018-03-09T00:39:18.034Z,0
2018-03-09T00:40:18.517Z,0
2018-03-09T00:41:18.016Z,0
2018-03-09T00:42:18.069Z,0
2018-03-09T00:43:18.000Z,0
2018-03-09T00:44:17.731Z,0
2018-03-09T00:45:18.331Z,0
2018-03-09T00:46:17.712Z,0
2018-03-09T00:47:17.713Z,0
2018-03-09T00:48:17.972Z,0
2018-03-09T00:49:17.943Z,0
2018-03-09T00:50:18.108Z,0
2018-03-09T00:51:17.677Z,0
2018-03-09T00:52:17.926Z,0
2018-03-09T00:53:17.689Z,0
2018-03-09T00:54:17.906Z,0
2018-03-09T00:55:19.983Z,0
2018-03-09T00:56:17.895Z,0
2018-03-09T00:57:17.883Z,0
2018-03-09T00:58:17.612Z,0
2018-03-09T00:59:17.123Z,0
2018-03-09T01:00:19.207Z,0
2018-03-09T01:01:17.862Z,0
2018-03-09T01:02:17.835Z,0
2018-03-09T01:03:17.838Z,0
2018-03-09T01:04:17.837Z,0
2018-03-09T01:05:17.801Z,0
2018-03-09T01:06:17.315Z,0
2018-03-09T01:07:17.800Z,0
2018-03-09T01:08:17.792Z,0
2018-03-09T01:09:17.791Z,0
2018-03-09T01:10:20.159Z,0
2018-03-09T01:11:17.780Z,0
2018-03-09T01:12:17.776Z,0
2018-03-09T01:13:17.512Z,0
2018-03-09T01:14:17.762Z,0
2018-03-09T01:15:17.719Z,0
2018-03-09T01:16:17.741Z,0
2018-03-09T01:17:17.741Z,0
2018-03-09T01:18:17.739Z,0
2018-03-09T01:19:17.737Z,0
2018-03-09T01:20:18.280Z,0
2018-03-09T01:21:17.703Z,0
2018-03-09T01:22:17.460Z,0
2018-03-09T01:23:17.690Z,0
2018-03-09T01:24:17.429Z,0
2018-03-09T01:25:18.442Z,0
2018-03-09T01:26:17.665Z,0
2018-03-09T01:27:17.662Z,0
2018-03-09T01:28:17.152Z,0
2018-03-09T01:29:17.663Z,0
2018-03-09T01:30:18.145Z,0
2018-03-09T01:31:17.381Z,0
2018-03-09T01:32:17.633Z,0
2018-03-09T01:33:17.108Z,0
2018-03-09T01:34:17.611Z,0
2018-03-09T01:35:17.850Z,0
2018-03-09T01:36:17.441Z,0
2018-03-09T01:37:17.595Z,0
2018-03-09T01:38:17.073Z,0
2018-03-09T01:39:17.586Z,0
2018-03-09T01:40:18.316Z,0
2018-03-09T01:41:17.340Z,0
2018-03-09T01:42:17.560Z,0
2018-03-09T01:43:17.310Z,0
2018-03-09T01:44:17.548Z,0
2018-03-09T01:45:17.754Z,0
2018-03-09T01:46:17.531Z,0
2018-03-09T01:47:17.532Z,0
2018-03-09T01:48:17.522Z,0
2018-03-09T01:49:17.256Z,0
2018-03-09T01:50:18.136Z,0
2018-03-09T01:51:17.241Z,0
2018-03-09T01:52:17.238Z,0
2018-03-09T01:53:17.240Z,0
2018-03-09T01:54:17.471Z,0
2018-03-09T01:55:17.761Z,0
2018-03-09T01:56:18.262Z,0
2018-03-09T01:57:17.456Z,0
2018-03-09T01:58:16.678Z,0
2018-03-09T01:59:17.441Z,0
2018-03-09T02:00:17.902Z,0
2018-03-09T02:01:17.169Z,0
2018-03-09T02:02:17.168Z,0
2018-03-09T02:03:17.168Z,0
2018-03-09T02:04:16.890Z,0
2018-03-09T02:05:17.891Z,0
2018-03-09T02:06:17.383Z,0
2018-03-09T02:07:17.125Z,0
2018-03-09T02:08:17.122Z,0
2018-03-09T02:09:17.104Z,0
2018-03-09T02:10:18.305Z,0
2018-03-09T02:11:17.408Z,0
2018-03-09T02:12:17.099Z,0
2018-03-09T02:13:17.334Z,0
2018-03-09T02:14:17.353Z,0
2018-03-09T02:15:18.143Z,0
2018-03-09T02:16:17.085Z,0
2018-03-09T02:17:17.304Z,0
2018-03-09T02:18:17.047Z,0
2018-03-09T02:19:17.283Z,0
2018-03-09T02:20:17.949Z,0
2018-03-09T02:21:17.278Z,0
2018-03-09T02:22:17.283Z,0
2018-03-09T02:23:17.274Z,0
2018-03-09T02:24:17.004Z,0
2018-03-09T02:25:18.190Z,0
2018-03-09T02:26:18.086Z,0
2018-03-09T02:27:17.236Z,0
2018-03-09T02:28:17.043Z,0
2018-03-09T02:29:17.213Z,0
2018-03-09T02:30:18.179Z,0
2018-03-09T02:31:17.222Z,0
2018-03-09T02:32:16.958Z,0
2018-03-09T02:33:16.959Z,0
2018-03-09T02:34:16.934Z,0
2018-03-09T02:35:18.415Z,0
2018-03-09T02:36:16.922Z,0
2018-03-09T02:37:16.903Z,0
2018-03-09T02:38:17.170Z,0
2018-03-09T02:39:17.153Z,0
2018-03-09T02:40:17.722Z,0
2018-03-09T02:41:18.791Z,0
2018-03-09T02:42:16.877Z,0
2018-03-09T02:43:16.873Z,0
2018-03-09T02:44:17.109Z,0
2018-03-09T02:45:16.973Z,0
2018-03-09T02:46:17.124Z,0
2018-03-09T02:47:17.258Z,0
2018-03-09T02:48:17.103Z,0
2018-03-09T02:49:16.841Z,0
2018-03-09T02:50:17.716Z,0
2018-03-09T02:51:16.812Z,0
2018-03-09T02:52:16.559Z,0
2018-03-09T02:53:16.794Z,0
2018-03-09T02:54:17.051Z,0
2018-03-09T02:55:17.870Z,0
2018-03-09T02:56:17.041Z,0
2018-03-09T02:57:18.281Z,0
2018-03-09T02:58:17.019Z,0
2018-03-09T02:59:16.780Z,0
2018-03-09T03:00:17.503Z,0
2018-03-09T03:01:16.800Z,0
2018-03-09T03:02:16.733Z,0
2018-03-09T03:03:16.733Z,0
2018-03-09T03:04:16.971Z,0
2018-03-09T03:05:17.885Z,0
2018-03-09T03:06:16.956Z,0
2018-03-09T03:07:16.448Z,0
2018-03-09T03:08:16.434Z,0
2018-03-09T03:09:16.707Z,0
2018-03-09T03:10:17.244Z,0
2018-03-09T03:11:16.922Z,0
2018-03-09T03:12:16.955Z,0
2018-03-09T03:13:16.689Z,0
2018-03-09T03:14:16.911Z,0
2018-03-09T03:15:17.223Z,0
2018-03-09T03:16:16.650Z,0
2018-03-09T03:17:16.881Z,0
2018-03-09T03:18:16.878Z,0
2018-03-09T03:19:16.868Z,0
2018-03-09T03:20:18.151Z,0
2018-03-09T03:21:16.857Z,0
2018-03-09T03:22:16.856Z,0
2018-03-09T03:23:16.613Z,0
2018-03-09T03:24:16.579Z,0
2018-03-09T03:25:18.104Z,0
2018-03-09T03:26:16.819Z,0
2018-03-09T03:27:17.362Z,0
2018-03-09T03:28:16.310Z,0
2018-03-09T03:29:16.790Z,0
2018-03-09T03:30:17.298Z,0
2018-03-09T03:31:16.797Z,0
2018-03-09T03:32:16.580Z,0
2018-03-09T03:33:16.832Z,0
2018-03-09T03:34:16.767Z,0
2018-03-09T03:35:17.119Z,0
2018-03-09T03:36:16.749Z,0
2018-03-09T03:37:16.747Z,0
2018-03-09T03:38:16.731Z,0
2018-03-09T03:39:16.725Z,0
2018-03-09T03:40:16.928Z,0
2018-03-09T03:41:16.708Z,0
2018-03-09T03:42:15.938Z,0
2018-03-09T03:43:16.436Z,0
2018-03-09T03:44:16.682Z,0
2018-03-09T03:45:16.871Z,0
2018-03-09T03:46:16.678Z,0
2018-03-09T03:47:16.410Z,0
2018-03-09T03:48:16.399Z,0
2018-03-09T03:49:16.664Z,0
2018-03-09T03:50:16.463Z,0
2018-03-09T03:51:16.385Z,0
2018-03-09T03:52:16.626Z,0
2018-03-09T03:53:16.617Z,0
2018-03-09T03:54:16.615Z,0
2018-03-09T03:55:16.629Z,0
2018-03-09T03:56:16.599Z,0
2018-03-09T03:57:16.611Z,0
2018-03-09T03:58:16.597Z,0
2018-03-09T03:59:16.577Z,0
2018-03-09T04:00:17.749Z,0
2018-03-09T04:01:16.055Z,0
2018-03-09T04:02:16.313Z,0
2018-03-09T04:03:16.551Z,0
2018-03-09T04:04:16.026Z,0
2018-03-09T04:05:17.370Z,0
2018-03-09T04:06:16.531Z,0
2018-03-09T04:07:16.532Z,0
2018-03-09T04:08:16.506Z,0
2018-03-09T04:09:16.504Z,0
2018-03-09T04:10:17.420Z,0
2018-03-09T04:11:16.500Z,0
2018-03-09T04:12:16.229Z,0
2018-03-09T04:13:17.291Z,0
2018-03-09T04:14:16.223Z,0
2018-03-09T04:15:16.849Z,0
2018-03-09T04:16:16.458Z,0
2018-03-09T04:17:16.460Z,0
2018-03-09T04:18:16.444Z,0
2018-03-09T04:19:16.439Z,0
2018-03-09T04:20:17.368Z,0
2018-03-09T04:21:16.418Z,0
2018-03-09T04:22:16.153Z,0
2018-03-09T04:23:16.410Z,0
2018-03-09T04:24:16.138Z,0
2018-03-09T04:25:16.994Z,0
2018-03-09T04:26:16.406Z,0
2018-03-09T04:27:16.369Z,0
2018-03-09T04:28:18.312Z,0
2018-03-09T04:29:16.366Z,0
2018-03-09T04:30:16.894Z,0
2018-03-09T04:31:16.348Z,0
2018-03-09T04:32:16.337Z,0
2018-03-09T04:33:16.081Z,0
2018-03-09T04:34:16.321Z,0
2018-03-09T04:35:16.718Z,0
2018-03-09T04:36:16.310Z,0
2018-03-09T04:37:16.350Z,0
2018-03-09T04:38:16.298Z,0
2018-03-09T04:39:16.026Z,0
2018-03-09T04:40:16.531Z,0
2018-03-09T04:41:16.282Z,0
2018-03-09T04:42:16.271Z,0
2018-03-09T04:43:17.357Z,0
2018-03-09T04:44:16.279Z,0
2018-03-09T04:45:16.796Z,0
2018-03-09T04:46:16.232Z,0
2018-03-09T04:47:15.974Z,0
2018-03-09T04:48:16.221Z,0
2018-03-09T04:49:16.224Z,0
2018-03-09T04:50:16.934Z,0
2018-03-09T04:51:15.957Z,0
2018-03-09T04:52:15.954Z,0
2018-03-09T04:53:15.960Z,0
2018-03-09T04:54:15.927Z,0
2018-03-09T04:55:16.648Z,0
2018-03-09T04:56:15.921Z,0
2018-03-09T04:57:15.918Z,0
2018-03-09T04:58:16.701Z,0
2018-03-09T04:59:16.142Z,0
2018-03-09T05:00:16.595Z,0
2018-03-09T05:01:16.148Z,0
2018-03-09T05:02:16.129Z,0
2018-03-09T05:03:15.868Z,0
2018-03-09T05:04:16.130Z,0
2018-03-09T05:05:16.855Z,0
2018-03-09T05:06:15.843Z,0
2018-03-09T05:07:16.095Z,0
2018-03-09T05:08:15.591Z,0
2018-03-09T05:09:15.565Z,0
2018-03-09T05:10:16.874Z,0
2018-03-09T05:11:15.810Z,0
2018-03-09T05:12:16.102Z,0
2018-03-09T05:13:15.789Z,0
2018-03-09T05:14:15.786Z,0
2018-03-09T05:15:16.817Z,0
2018-03-09T05:16:15.513Z,0
2018-03-09T05:17:16.013Z,0
2018-03-09T05:18:16.023Z,0
2018-03-09T05:19:15.757Z,0
2018-03-09T05:20:16.047Z,0
2018-03-09T05:21:15.741Z,0
2018-03-09T05:22:15.983Z,0
2018-03-09T05:23:15.968Z,0
2018-03-09T05:24:15.703Z,0
2018-03-09T05:25:16.946Z,4
2018-03-09T05:26:15.712Z,4
2018-03-09T05:27:15.945Z,0
2018-03-09T05:28:15.679Z,4
2018-03-09T05:29:16.772Z,4
2018-03-09T05:30:16.304Z,4
2018-03-09T05:31:15.910Z,8
2018-03-09T05:32:15.649Z,8
2018-03-09T05:33:15.664Z,8
2018-03-09T05:34:15.635Z,8
2018-03-09T05:35:15.830Z,12
2018-03-09T05:36:15.629Z,16
2018-03-09T05:37:15.615Z,16
2018-03-09T05:38:15.872Z,20
2018-03-09T05:39:15.851Z,24
2018-03-09T05:40:16.560Z,24
2018-03-09T05:41:15.345Z,32
2018-03-09T05:42:15.831Z,32
2018-03-09T05:43:15.607Z,36
2018-03-09T05:44:16.319Z,40
2018-03-09T05:45:16.121Z,44
2018-03-09T05:46:15.808Z,48
2018-03-09T05:47:15.295Z,52
2018-03-09T05:48:15.792Z,60
2018-03-09T05:49:15.889Z,64
2018-03-09T05:50:16.088Z,76
2018-03-09T05:51:15.784Z,88
2018-03-09T05:52:15.508Z,104
2018-03-09T05:53:15.498Z,116
2018-03-09T05:54:15.488Z,132
2018-03-09T05:55:15.805Z,148
2018-03-09T05:56:15.476Z,160
2018-03-09T05:57:15.728Z,176
2018-03-09T05:58:15.242Z,192
2018-03-09T05:59:19.912Z,208
2018-03-09T06:00:16.734Z,220
2018-03-09T06:01:15.437Z,232
2018-03-09T06:02:15.728Z,248
2018-03-09T06:03:15.428Z,268
2018-03-09T06:04:15.677Z,284
2018-03-09T06:05:15.915Z,300
2018-03-09T06:06:15.672Z,312
2018-03-09T06:07:15.653Z,324
2018-03-09T06:08:15.392Z,328
2018-03-09T06:09:15.392Z,336
2018-03-09T06:10:16.623Z,344
2018-03-09T06:11:15.623Z,360
2018-03-09T06:12:15.363Z,376
2018-03-09T06:13:15.616Z,392
2018-03-09T06:14:15.599Z,412
2018-03-09T06:15:16.699Z,436
2018-03-09T06:16:15.595Z,460
2018-03-09T06:17:15.336Z,484
2018-03-09T06:18:15.583Z,504
2018-03-09T06:27:38.153Z,704
2018-03-09T06:28:37.868Z,712
2018-03-09T06:29:37.622Z,724
2018-03-09T06:30:38.104Z,744
2018-03-09T06:31:38.096Z,760
2018-03-09T06:32:38.076Z,776
2018-03-09T06:33:37.589Z,792
2018-03-09T06:34:38.060Z,808
2018-03-09T06:35:37.561Z,836
2018-03-09T06:36:38.050Z,872
2018-03-09T06:37:38.031Z,920
2018-03-09T06:38:38.039Z,984
2018-03-09T06:39:38.015Z,1052
2018-03-09T06:40:38.014Z,1120
2018-03-09T06:41:37.746Z,1188
2018-03-09T06:42:37.744Z,1260
2018-03-09T06:43:37.996Z,1344
2018-03-09T06:44:37.740Z,1436
2018-03-09T06:45:37.976Z,1524
2018-03-09T06:46:38.004Z,1608
2018-03-09T06:47:39.521Z,1680
2018-03-09T06:48:37.950Z,1760
2018-03-09T06:49:37.676Z,1868
2018-03-09T06:50:37.934Z,2000
2018-03-09T06:51:37.936Z,2164
2018-03-09T06:52:37.665Z,2304
2018-03-09T06:53:37.921Z,2380
2018-03-09T06:54:37.918Z,2364
2018-03-09T06:55:37.911Z,2296
2018-03-09T06:56:37.651Z,2240
2018-03-09T06:57:37.378Z,2192
2018-03-09T06:58:37.619Z,2144
2018-03-09T06:59:37.140Z,2128
2018-03-09T07:00:37.614Z,2136
2018-03-09T07:01:37.611Z,2164
2018-03-09T07:02:39.762Z,2216
2018-03-09T07:03:37.860Z,2244
2018-03-09T07:04:37.862Z,2252
2018-03-09T07:05:37.572Z,2252
2018-03-09T07:06:37.851Z,2244
2018-03-09T07:07:37.568Z,2220
2018-03-09T07:08:37.572Z,2156
2018-03-09T07:09:37.560Z,2096
2018-03-09T07:10:37.798Z,2072
2018-03-09T07:11:37.805Z,2016
2018-03-09T07:12:37.541Z,1976
2018-03-09T07:13:37.537Z,1996
2018-03-09T07:14:37.521Z,2036
2018-03-09T07:15:37.763Z,2044
2018-03-09T07:16:37.505Z,2024
2018-03-09T07:17:39.652Z,1964
2018-03-09T07:18:37.239Z,1912
2018-03-09T07:19:37.479Z,1944
2018-03-09T07:20:36.966Z,2060
2018-03-09T07:21:37.719Z,2128
2018-03-09T07:22:37.460Z,2144
2018-03-09T07:23:37.466Z,2164
2018-03-09T07:24:37.464Z,2268
2018-03-09T07:25:37.697Z,2440
2018-03-09T07:26:37.438Z,2596
2018-03-09T07:27:37.457Z,2704
2018-03-09T07:28:37.684Z,2776
2018-03-09T07:29:37.675Z,2812
2018-03-09T07:30:37.688Z,2768
2018-03-09T07:31:37.238Z,2584
2018-03-09T07:32:40.482Z,2324
2018-03-09T07:33:37.683Z,2104
2018-03-09T07:34:37.655Z,1976
2018-03-09T07:35:37.643Z,1920
2018-03-09T07:36:37.384Z,1944
2018-03-09T07:37:37.628Z,1904
2018-03-09T07:38:37.627Z,1860
2018-03-09T07:39:37.622Z,1920
2018-03-09T07:40:37.369Z,1984
2018-03-09T07:41:37.612Z,2052
2018-03-09T07:42:37.601Z,2176
2018-03-09T07:43:37.432Z,2320
2018-03-09T07:44:37.340Z,2460
2018-03-09T07:45:37.331Z,2544
2018-03-09T07:46:37.596Z,2560
2018-03-09T07:47:37.311Z,2560
2018-03-09T07:48:37.563Z,2556
2018-03-09T07:49:37.558Z,2608
2018-03-09T07:50:37.310Z,2640
2018-03-09T07:51:37.570Z,2620
2018-03-09T07:52:37.287Z,2592
2018-03-09T07:53:37.288Z,2524
2018-03-09T07:54:37.532Z,2452
2018-03-09T07:55:37.555Z,2404
2018-03-09T07:56:37.299Z,2336
2018-03-09T07:57:37.555Z,2332
2018-03-09T07:58:37.541Z,2400
2018-03-09T07:59:37.032Z,2500
2018-03-09T08:00:37.338Z,2588
2018-03-09T08:01:37.522Z,2620
2018-03-09T08:02:37.513Z,2660
2018-03-09T08:03:37.552Z,2708
2018-03-09T08:04:37.274Z,2708
2018-03-09T08:05:36.985Z,2660
2018-03-09T08:06:37.610Z,2604
2018-03-09T08:07:37.237Z,2544
2018-03-09T08:08:37.481Z,2496
2018-03-09T08:09:36.958Z,2408
2018-03-09T08:10:36.955Z,2344
2018-03-09T08:11:37.208Z,2288
2018-03-09T08:12:36.934Z,2260
2018-03-09T08:13:37.191Z,2300
2018-03-09T08:14:37.451Z,2432
2018-03-09T08:15:37.177Z,2712
2018-03-09T08:16:36.921Z,3116
2018-03-09T08:17:37.244Z,3584
2018-03-09T08:18:38.638Z,4092
2018-03-09T08:19:37.154Z,4552
2018-03-09T08:20:37.408Z,4940
2018-03-09T08:21:37.533Z,5204
2018-03-09T08:22:37.143Z,5392
2018-03-09T08:23:37.436Z,5540
2018-03-09T08:24:37.402Z,5624
2018-03-09T08:25:37.382Z,5644
2018-03-09T08:26:37.389Z,5764
2018-03-09T08:27:37.376Z,5788
2018-03-09T08:28:36.881Z,5776
2018-03-09T08:29:37.364Z,5916
2018-03-09T08:30:37.097Z,6060
2018-03-09T08:31:37.097Z,6116
2018-03-09T08:32:37.406Z,6152
2018-03-09T08:33:37.932Z,6176
2018-03-09T08:34:37.078Z,6208
2018-03-09T08:35:36.826Z,6212
2018-03-09T08:36:37.371Z,6192
2018-03-09T08:37:37.077Z,6156
2018-03-09T08:38:37.323Z,6060
2018-03-09T08:39:37.311Z,5880
2018-03-09T08:40:37.052Z,5712
2018-03-09T08:41:37.313Z,5576
2018-03-09T08:42:36.789Z,5472
2018-03-09T08:43:37.051Z,5404
2018-03-09T08:44:37.294Z,5412
2018-03-09T08:45:37.051Z,5544
2018-03-09T08:46:37.390Z,5656
2018-03-09T08:47:37.293Z,5760
2018-03-09T08:48:39.155Z,5772
2018-03-09T08:49:37.282Z,5696
2018-03-09T08:50:37.019Z,5596
2018-03-09T08:51:37.275Z,5468
2018-03-09T08:52:37.264Z,5476
2018-03-09T08:53:37.001Z,5588
2018-03-09T08:54:37.261Z,5708
2018-03-09T08:55:36.740Z,5844
2018-03-09T08:56:37.257Z,6004
2018-03-09T08:57:36.983Z,6140
2018-03-09T08:58:37.121Z,6212
2018-03-09T08:59:37.038Z,6184
2018-03-09T09:00:37.238Z,6064
2018-03-09T09:01:36.983Z,5904
2018-03-09T09:02:37.226Z,5720
2018-03-09T09:03:37.218Z,5552
2018-03-09T09:04:37.257Z,5396
2018-03-09T09:05:37.210Z,5268
2018-03-09T09:06:37.025Z,5192
2018-03-09T09:07:37.210Z,5172
2018-03-09T09:08:37.432Z,5220
2018-03-09T09:09:37.240Z,5332
2018-03-09T09:10:37.191Z,5476
2018-03-09T09:11:37.274Z,5588
2018-03-09T09:12:36.932Z,5668
2018-03-09T09:13:37.408Z,5692
2018-03-09T09:14:37.197Z,5708
2018-03-09T09:15:36.928Z,5780
2018-03-09T09:16:37.174Z,5888
2018-03-09T09:17:36.915Z,5968
2018-03-09T09:18:37.169Z,5992
2018-03-09T09:19:37.673Z,6040
2018-03-09T09:20:37.162Z,6268
2018-03-09T09:21:37.164Z,6524
2018-03-09T09:22:37.158Z,6676
2018-03-09T09:23:37.335Z,6716
2018-03-09T09:24:37.160Z,6680
2018-03-09T09:25:36.891Z,6616
2018-03-09T09:26:37.148Z,6472
2018-03-09T09:27:36.694Z,6244
2018-03-09T09:28:36.882Z,6088
2018-03-09T09:29:37.953Z,6008
2018-03-09T09:30:37.146Z,5976
2018-03-09T09:31:36.885Z,6012
2018-03-09T09:32:36.873Z,6104
2018-03-09T09:33:37.134Z,6212
2018-03-09T09:34:37.647Z,6312
2018-03-09T09:35:36.612Z,6428
2018-03-09T09:36:36.873Z,6560
2018-03-09T09:37:36.869Z,6680
2018-03-09T09:38:37.136Z,6792
2018-03-09T09:39:37.116Z,6888
2018-03-09T09:40:37.119Z,6952
2018-03-09T09:41:37.118Z,6988
2018-03-09T09:42:37.109Z,6980
2018-03-09T09:43:37.284Z,6912
2018-03-09T09:44:36.844Z,6820
2018-03-09T09:45:37.108Z,6768
2018-03-09T09:46:37.107Z,6804
2018-03-09T09:47:37.100Z,6908
2018-03-09T09:48:37.124Z,7076
2018-03-09T09:49:37.554Z,7152
2018-03-09T09:50:36.847Z,7100
2018-03-09T09:51:36.835Z,6996
2018-03-09T09:52:37.133Z,6932
2018-03-09T09:53:37.100Z,6920
2018-03-09T09:54:37.088Z,6968
2018-03-09T09:55:37.095Z,7076
2018-03-09T09:56:36.826Z,7152
2018-03-09T09:57:37.103Z,7120
2018-03-09T09:58:37.094Z,7048
2018-03-09T09:59:37.132Z,6928
2018-03-09T10:00:37.101Z,6760
2018-03-09T10:01:37.073Z,6540
2018-03-09T10:02:37.072Z,6340
2018-03-09T10:03:36.831Z,6140
2018-03-09T10:04:37.646Z,5964
2018-03-09T10:05:36.567Z,5832
2018-03-09T10:06:36.826Z,5756
2018-03-09T10:07:36.618Z,5684
2018-03-09T10:08:36.554Z,5588
2018-03-09T10:09:37.864Z,5460
2018-03-09T10:10:36.803Z,5288
2018-03-09T10:11:37.066Z,5184
2018-03-09T10:12:36.549Z,5176
2018-03-09T10:13:36.805Z,5204
2018-03-09T10:14:36.811Z,5196
2018-03-09T10:15:36.801Z,5144
2018-03-09T10:16:37.065Z,5104
2018-03-09T10:17:37.063Z,5136
2018-03-09T10:18:37.127Z,5244
2018-03-09T10:19:37.053Z,5432
2018-03-09T10:20:36.801Z,5692
2018-03-09T10:21:37.068Z,5920
2018-03-09T10:22:36.541Z,6180
2018-03-09T10:23:36.837Z,6472
2018-03-09T10:24:36.802Z,6680
2018-03-09T10:25:37.057Z,6804
2018-03-09T10:26:37.123Z,6900
2018-03-09T10:27:36.793Z,7084
2018-03-09T10:28:37.051Z,7204
2018-03-09T10:58:33.741Z,8668
2018-03-09T10:59:33.743Z,8676
2018-03-09T11:00:33.529Z,8704
2018-03-09T11:01:33.495Z,8724
2018-03-09T11:02:33.713Z,8856
2018-03-09T11:03:33.454Z,8916
2018-03-09T11:04:33.201Z,8924
2018-03-09T11:05:33.446Z,8964
2018-03-09T11:06:33.182Z,9128
2018-03-09T11:07:33.700Z,9316
2018-03-09T11:08:33.703Z,9432
2018-03-09T11:09:33.433Z,9484
2018-03-09T11:10:33.437Z,9512
2018-03-09T11:11:33.169Z,9492
2018-03-09T11:12:33.427Z,9440
2018-03-09T11:13:34.464Z,9520
2018-03-09T11:14:33.465Z,9608
2018-03-09T11:15:33.697Z,9752
2018-03-09T11:16:33.428Z,9892
2018-03-09T11:17:33.681Z,9832
2018-03-09T11:18:33.688Z,9552
2018-03-09T11:19:33.209Z,9264
2018-03-09T11:20:33.688Z,9104
2018-03-09T11:21:33.682Z,9040
2018-03-09T11:22:33.430Z,8768
2018-03-09T11:23:33.673Z,8676
2018-03-09T11:24:33.680Z,8344
2018-03-09T11:25:33.438Z,8268
2018-03-09T11:26:33.419Z,8444
2018-03-09T11:27:33.687Z,8440
2018-03-09T11:28:34.223Z,8356
2018-03-09T11:29:32.918Z,8012
2018-03-09T11:30:33.421Z,7320
2018-03-09T11:31:33.446Z,6548
2018-03-09T11:32:33.745Z,5896
2018-03-09T11:33:33.418Z,5348
2018-03-09T11:34:33.689Z,4936
2018-03-09T11:35:33.418Z,4780
2018-03-09T11:36:33.428Z,4776
2018-03-09T11:37:33.425Z,4660
2018-03-09T11:38:33.426Z,4424
2018-03-09T11:39:33.689Z,4280
2018-03-09T11:40:33.437Z,4232
2018-03-09T11:41:33.447Z,3932
2018-03-09T11:42:33.450Z,3624
2018-03-09T11:43:33.693Z,3328
2018-03-09T11:44:33.690Z,3096
2018-03-09T11:45:32.917Z,2992
2018-03-09T11:46:33.431Z,2912
2018-03-09T11:47:33.428Z,2804
2018-03-09T11:48:33.687Z,2720
2018-03-09T11:49:33.698Z,2740
2018-03-09T11:50:33.694Z,2824
2018-03-09T11:51:33.183Z,2928
2018-03-09T11:52:33.692Z,3040
2018-03-09T11:53:33.696Z,3148
2018-03-09T11:54:33.448Z,3172
2018-03-09T11:55:33.695Z,3112
2018-03-09T11:56:33.440Z,3024
2018-03-09T11:57:33.224Z,2968
2018-03-09T11:58:34.685Z,2860
2018-03-09T11:59:32.913Z,2760
2018-03-09T12:00:33.421Z,2640
2018-03-09T12:01:33.692Z,2572
2018-03-09T12:02:33.436Z,2516
2018-03-09T12:03:33.167Z,2464
2018-03-09T12:04:33.706Z,2488
2018-03-09T12:05:33.436Z,2564
2018-03-09T12:06:33.169Z,2608
2018-03-09T12:07:33.679Z,2560
2018-03-09T12:08:33.171Z,2572
2018-03-09T12:09:33.677Z,2692
2018-03-09T12:10:33.676Z,2792
2018-03-09T12:11:33.415Z,2820
2018-03-09T12:12:33.428Z,2844
2018-03-09T12:13:33.289Z,2884
2018-03-09T12:14:33.415Z,2956
2018-03-09T12:15:33.676Z,3116
2018-03-09T12:16:33.682Z,3316
2018-03-09T12:17:33.423Z,3524
2018-03-09T12:18:33.416Z,3652
2018-03-09T12:19:33.417Z,3632
2018-03-09T12:20:33.414Z,3648
2018-03-09T12:21:33.684Z,3732
2018-03-09T12:22:33.409Z,3852
2018-03-09T12:23:33.682Z,4040
2018-03-09T12:24:33.662Z,4392
2018-03-09T12:25:33.405Z,4800
2018-03-09T12:26:33.662Z,5216
2018-03-09T12:27:33.668Z,5740
2018-03-09T12:28:34.229Z,6224
2018-03-09T12:29:33.421Z,6380
2018-03-09T12:30:33.658Z,6064
2018-03-09T12:31:33.660Z,5808
2018-03-09T12:32:33.731Z,6020
2018-03-09T12:33:32.891Z,6196
2018-03-09T12:34:33.660Z,6200
2018-03-09T12:35:33.417Z,6216
2018-03-09T12:36:33.425Z,6108
2018-03-09T12:37:33.421Z,5840
2018-03-09T12:38:33.393Z,5516
2018-03-09T12:39:33.658Z,5264
2018-03-09T12:40:33.669Z,5064
2018-03-09T12:41:33.656Z,5156
2018-03-09T12:42:33.652Z,5460
2018-03-09T12:43:33.660Z,5768
2018-03-09T12:44:33.633Z,6112
2018-03-09T12:45:33.389Z,6492
2018-03-09T12:46:33.637Z,6808
2018-03-09T12:47:33.375Z,6960
2018-03-09T12:48:33.644Z,7068
2018-03-09T12:49:33.379Z,7272
2018-03-09T12:50:33.636Z,7580
2018-03-09T12:51:33.373Z,8072
2018-03-09T12:52:33.381Z,8432
2018-03-09T12:53:33.370Z,8532
2018-03-09T12:54:33.622Z,8664
2018-03-09T12:55:33.380Z,8908
2018-03-09T12:56:33.375Z,9232
2018-03-09T12:57:33.625Z,9300
2018-03-09T12:58:37.132Z,9120
2018-03-09T12:59:33.375Z,8948
2018-03-09T13:00:33.627Z,8740
2018-03-09T13:01:32.885Z,8648
2018-03-09T13:02:33.624Z,8648
2018-03-09T13:03:33.105Z,8572
2018-03-09T13:04:33.620Z,8416
2018-03-09T13:05:33.376Z,8296
2018-03-09T13:06:33.623Z,8080
2018-03-09T13:07:33.408Z,7748
2018-03-09T13:08:33.620Z,7368
2018-03-09T13:09:33.615Z,7200
2018-03-09T13:10:33.624Z,7124
2018-03-09T13:11:33.507Z,7060
2018-03-09T13:12:33.627Z,7016
2018-03-09T13:13:33.367Z,6976
2018-03-09T13:14:33.411Z,6980
2018-03-09T13:15:33.363Z,7068
2018-03-09T13:16:33.616Z,7148
2018-03-09T13:17:33.622Z,7140
2018-03-09T13:18:33.336Z,7140
2018-03-09T13:19:33.088Z,7208
2018-03-09T13:20:33.337Z,7324
2018-03-09T13:21:33.644Z,7372
2018-03-09T13:22:33.344Z,7436
2018-03-09T13:23:33.639Z,7480
2018-03-09T13:24:33.337Z,7448
2018-03-09T13:25:33.333Z,7488
2018-03-09T13:26:33.590Z,7392
2018-03-09T13:27:33.336Z,7268
2018-03-09T13:28:33.596Z,7328
2018-03-09T13:29:33.632Z,7496
2018-03-09T13:30:33.593Z,7736
2018-03-09T13:31:33.331Z,7924
2018-03-09T13:32:33.595Z,8096
2018-03-09T13:33:33.335Z,8260
2018-03-09T13:34:33.085Z,8264
2018-03-09T13:35:33.593Z,8156
2018-03-09T13:36:33.355Z,8084
2018-03-09T13:37:33.083Z,8092
2018-03-09T13:38:33.600Z,8148
2018-03-09T13:39:34.394Z,8172
2018-03-09T13:40:33.359Z,8016
2018-03-09T13:41:33.337Z,7720
2018-03-09T13:42:33.592Z,7400
2018-03-09T13:43:33.608Z,7168
2018-03-09T13:44:33.347Z,6948
2018-03-09T13:45:33.344Z,6712
2018-03-09T13:46:33.086Z,6536
2018-03-09T13:47:33.360Z,6296
2018-03-09T13:48:33.089Z,5936
2018-03-09T13:49:33.597Z,5688
2018-03-09T13:50:33.344Z,5592
2018-03-09T13:51:33.599Z,5548
2018-03-09T13:52:33.351Z,5580
2018-03-09T13:53:33.347Z,5628
2018-03-09T13:54:33.344Z,5640
2018-03-09T13:55:33.087Z,5612
2018-03-09T13:56:33.634Z,5692
2018-03-09T13:57:33.356Z,5828
2018-03-09T13:58:33.355Z,5896
2018-03-09T13:59:34.803Z,5808
2018-03-09T14:00:33.357Z,5632
2018-03-09T14:01:33.611Z,5456
2018-03-09T14:02:33.098Z,5316
2018-03-09T14:03:33.618Z,5216
2018-03-09T14:04:33.368Z,5220
2018-03-09T14:05:33.353Z,5244
2018-03-09T14:06:33.354Z,5160
2018-03-09T14:07:33.609Z,5056
2018-03-09T14:08:33.388Z,5012
2018-03-09T14:09:33.625Z,5064
2018-03-09T14:10:33.102Z,5152
2018-03-09T14:11:33.611Z,5220
2018-03-09T14:12:33.357Z,5196
2018-03-09T14:13:33.633Z,4996
2018-03-09T14:14:34.375Z,4796
2018-03-09T14:15:33.360Z,4672
2018-03-09T14:16:33.364Z,4712
2018-03-09T14:17:33.366Z,4828
2018-03-09T14:18:33.620Z,4912
2018-03-09T14:19:33.621Z,4924
2018-03-09T14:20:34.263Z,4856
2018-03-09T14:21:33.618Z,4772
2018-03-09T14:22:33.363Z,4676
2018-03-09T14:23:33.619Z,4600
2018-03-09T14:24:33.110Z,4544
2018-03-09T14:25:33.364Z,4560
2018-03-09T14:26:33.617Z,4624
2018-03-09T14:27:33.619Z,4676
2018-03-09T14:28:33.624Z,4664
2018-03-09T14:29:33.115Z,4664
2018-03-09T14:30:33.869Z,4680
2018-03-09T14:31:33.628Z,4696